sensor_id;sensor_type;location;lat;lon;timestamp;temperature;humidity
53876;DHT22;39789;53.216;5.624;2023-03-14T00:01:14;10.00;99.90
53876;DHT22;39789;53.216;5.624;2023-03-14T00:03:40;9.90;99.90
53876;DHT22;39789;53.216;5.624;2023-03-14T00:06:07;9.90;99.90
53876;DHT22;39789;53.216;5.624;2023-03-14T00:08:35;9.90;99.90
53876;DHT22;39789;53.216;5.624;2023-03-14T00:11:20;9.90;99.90
53876;DHT22;39789;53.216;5.624;2023-03-14T00:13:49;9.90;99.90
53876;DHT22;39789;53.216;5.624;2023-03-14T00:16:15;9.80;99.90
53876;DHT22;39789;53.216;5.624;2023-03-14T00:18:40;9.80;99.90
53876;DHT22;39789;53.216;5.624;2023-03-14T00:21:08;9.80;99.90
53876;DHT22;39789;53.216;5.624;2023-03-14T00:23:35;9.60;99.90
53876;DHT22;39789;53.216;5.624;2023-03-14T00:26:21;9.60;99.90
53876;DHT22;39789;53.216;5.624;2023-03-14T00:28:52;9.50;99.90
53876;DHT22;39789;53.216;5.624;2023-03-14T00:31:18;9.50;99.90
53876;DHT22;39789;53.216;5.624;2023-03-14T00:33:44;9.40;99.90
53876;DHT22;39789;53.216;5.624;2023-03-14T00:36:13;9.40;99.90
53876;DHT22;39789;53.216;5.624;2023-03-14T00:38:41;9.30;99.90
53876;DHT22;39789;53.216;5.624;2023-03-14T00:41:09;9.30;99.90
53876;DHT22;39789;53.216;5.624;2023-03-14T00:43:36;9.30;99.90
53876;DHT22;39789;53.216;5.624;2023-03-14T00:46:02;9.20;99.90
53876;DHT22;39789;53.216;5.624;2023-03-14T00:48:28;9.30;99.90
53876;DHT22;39789;53.216;5.624;2023-03-14T00:50:55;9.30;99.90
53876;DHT22;39789;53.216;5.624;2023-03-14T00:53:21;9.30;99.90
53876;DHT22;39789;53.216;5.624;2023-03-14T00:55:46;9.30;99.90
53876;DHT22;39789;53.216;5.624;2023-03-14T00:58:14;9.40;99.90
53876;DHT22;39789;53.216;5.624;2023-03-14T01:00:44;9.40;99.90
53876;DHT22;39789;53.216;5.624;2023-03-14T01:03:11;9.40;99.90
53876;DHT22;39789;53.216;5.624;2023-03-14T01:05:37;9.40;99.90
53876;DHT22;39789;53.216;5.624;2023-03-14T01:08:03;9.60;99.90
53876;DHT22;39789;53.216;5.624;2023-03-14T01:10:29;9.40;99.90
53876;DHT22;39789;53.216;5.624;2023-03-14T01:12:55;9.40;99.90
53876;DHT22;39789;53.216;5.624;2023-03-14T01:15:20;9.40;99.90
53876;DHT22;39789;53.216;5.624;2023-03-14T01:17:47;9.40;99.90
53876;DHT22;39789;53.216;5.624;2023-03-14T01:20:14;9.40;99.90
53876;DHT22;39789;53.216;5.624;2023-03-14T01:22:40;9.40;99.90
53876;DHT22;39789;53.216;5.624;2023-03-14T01:25:12;9.30;99.90
53876;DHT22;39789;53.216;5.624;2023-03-14T01:27:41;9.30;99.90
53876;DHT22;39789;53.216;5.624;2023-03-14T01:30:07;9.20;99.90
53876;DHT22;39789;53.216;5.624;2023-03-14T01:32:33;9.20;99.90
53876;DHT22;39789;53.216;5.624;2023-03-14T01:34:59;9.20;99.90
53876;DHT22;39789;53.216;5.624;2023-03-14T01:37:25;9.20;99.90
53876;DHT22;39789;53.216;5.624;2023-03-14T01:39:50;9.20;99.90
53876;DHT22;39789;53.216;5.624;2023-03-14T01:42:16;9.20;99.90
53876;DHT22;39789;53.216;5.624;2023-03-14T01:44:53;9.20;99.90
53876;DHT22;39789;53.216;5.624;2023-03-14T01:47:19;9.20;99.90
53876;DHT22;39789;53.216;5.624;2023-03-14T01:50:02;9.20;99.90
53876;DHT22;39789;53.216;5.624;2023-03-14T01:52:36;9.20;99.90
53876;DHT22;39789;53.216;5.624;2023-03-14T01:55:10;9.20;99.90
53876;DHT22;39789;53.216;5.624;2023-03-14T01:57:40;9.50;99.90
53876;DHT22;39789;53.216;5.624;2023-03-14T02:00:12;9.20;99.90
53876;DHT22;39789;53.216;5.624;2023-03-14T02:02:45;9.20;99.90
53876;DHT22;39789;53.216;5.624;2023-03-14T02:05:13;9.20;99.90
53876;DHT22;39789;53.216;5.624;2023-03-14T02:10:14;9.10;99.90
53876;DHT22;39789;53.216;5.624;2023-03-14T02:12:43;9.10;99.90
53876;DHT22;39789;53.216;5.624;2023-03-14T02:15:09;9.10;99.90
53876;DHT22;39789;53.216;5.624;2023-03-14T02:17:35;9.10;99.90
53876;DHT22;39789;53.216;5.624;2023-03-14T02:20:13;9.10;99.90
53876;DHT22;39789;53.216;5.624;2023-03-14T02:22:44;9.10;99.90
53876;DHT22;39789;53.216;5.624;2023-03-14T02:25:31;9.10;99.90
53876;DHT22;39789;53.216;5.624;2023-03-14T02:28:00;9.10;99.90
53876;DHT22;39789;53.216;5.624;2023-03-14T02:30:29;9.10;99.90
53876;DHT22;39789;53.216;5.624;2023-03-14T02:33:08;9.10;99.90
53876;DHT22;39789;53.216;5.624;2023-03-14T02:36:01;9.00;99.90
53876;DHT22;39789;53.216;5.624;2023-03-14T02:38:33;9.00;99.90
53876;DHT22;39789;53.216;5.624;2023-03-14T02:41:00;9.00;99.90
53876;DHT22;39789;53.216;5.624;2023-03-14T02:43:28;9.00;99.90
53876;DHT22;39789;53.216;5.624;2023-03-14T02:45:55;9.00;99.90
53876;DHT22;39789;53.216;5.624;2023-03-14T02:48:25;9.00;99.90
53876;DHT22;39789;53.216;5.624;2023-03-14T02:50:56;9.00;99.90
53876;DHT22;39789;53.216;5.624;2023-03-14T02:53:28;9.00;99.90
53876;DHT22;39789;53.216;5.624;2023-03-14T02:55:54;9.70;99.90
53876;DHT22;39789;53.216;5.624;2023-03-14T02:58:20;9.00;99.90
53876;DHT22;39789;53.216;5.624;2023-03-14T03:00:49;9.00;99.90
53876;DHT22;39789;53.216;5.624;2023-03-14T03:03:15;9.00;99.90
53876;DHT22;39789;53.216;5.624;2023-03-14T03:05:41;9.00;99.90
53876;DHT22;39789;53.216;5.624;2023-03-14T03:08:10;9.00;99.90
53876;DHT22;39789;53.216;5.624;2023-03-14T03:10:36;9.00;99.90
53876;DHT22;39789;53.216;5.624;2023-03-14T03:13:04;9.00;99.90
53876;DHT22;39789;53.216;5.624;2023-03-14T03:15:32;9.00;99.90
53876;DHT22;39789;53.216;5.624;2023-03-14T03:17:57;9.00;99.90
53876;DHT22;39789;53.216;5.624;2023-03-14T03:20:23;9.00;99.90
53876;DHT22;39789;53.216;5.624;2023-03-14T03:22:49;9.00;99.90
53876;DHT22;39789;53.216;5.624;2023-03-14T03:25:18;9.00;99.90
53876;DHT22;39789;53.216;5.624;2023-03-14T03:27:43;9.00;99.90
53876;DHT22;39789;53.216;5.624;2023-03-14T03:30:09;9.00;99.90
53876;DHT22;39789;53.216;5.624;2023-03-14T03:32:35;9.10;99.90
53876;DHT22;39789;53.216;5.624;2023-03-14T03:35:03;9.10;99.90
53876;DHT22;39789;53.216;5.624;2023-03-14T03:37:32;9.10;99.90
53876;DHT22;39789;53.216;5.624;2023-03-14T03:39:58;9.10;99.90
53876;DHT22;39789;53.216;5.624;2023-03-14T03:42:24;9.10;99.90
53876;DHT22;39789;53.216;5.624;2023-03-14T03:44:51;9.10;99.90
53876;DHT22;39789;53.216;5.624;2023-03-14T03:47:16;9.20;99.90
53876;DHT22;39789;53.216;5.624;2023-03-14T03:49:42;9.10;99.90
53876;DHT22;39789;53.216;5.624;2023-03-14T03:52:08;9.10;99.90
53876;DHT22;39789;53.216;5.624;2023-03-14T03:54:34;9.20;99.90
53876;DHT22;39789;53.216;5.624;2023-03-14T03:57:00;9.10;99.90
53876;DHT22;39789;53.216;5.624;2023-03-14T03:59:26;9.10;99.90
53876;DHT22;39789;53.216;5.624;2023-03-14T04:01:52;9.10;99.90
53876;DHT22;39789;53.216;5.624;2023-03-14T04:04:17;9.10;99.90
53876;DHT22;39789;53.216;5.624;2023-03-14T04:06:43;9.10;99.90
53876;DHT22;39789;53.216;5.624;2023-03-14T04:09:10;9.10;99.90
53876;DHT22;39789;53.216;5.624;2023-03-14T04:11:35;9.10;99.90
53876;DHT22;39789;53.216;5.624;2023-03-14T04:14:04;9.00;99.90
53876;DHT22;39789;53.216;5.624;2023-03-14T04:16:30;9.00;99.90
53876;DHT22;39789;53.216;5.624;2023-03-14T04:18:59;8.90;99.90
53876;DHT22;39789;53.216;5.624;2023-03-14T04:21:25;8.90;99.90
53876;DHT22;39789;53.216;5.624;2023-03-14T04:23:55;8.90;99.90
53876;DHT22;39789;53.216;5.624;2023-03-14T04:26:21;8.90;99.90
53876;DHT22;39789;53.216;5.624;2023-03-14T04:28:50;8.80;99.90
53876;DHT22;39789;53.216;5.624;2023-03-14T04:31:19;8.80;99.90
53876;DHT22;39789;53.216;5.624;2023-03-14T04:33:45;8.80;99.90
53876;DHT22;39789;53.216;5.624;2023-03-14T04:36:11;8.80;99.90
53876;DHT22;39789;53.216;5.624;2023-03-14T04:38:37;8.80;99.90
53876;DHT22;39789;53.216;5.624;2023-03-14T04:41:04;8.70;99.90
53876;DHT22;39789;53.216;5.624;2023-03-14T04:43:30;8.70;99.90
53876;DHT22;39789;53.216;5.624;2023-03-14T04:45:57;8.70;99.90
53876;DHT22;39789;53.216;5.624;2023-03-14T04:48:26;8.70;99.90
53876;DHT22;39789;53.216;5.624;2023-03-14T04:50:52;8.70;99.90
53876;DHT22;39789;53.216;5.624;2023-03-14T04:53:18;8.70;99.90
53876;DHT22;39789;53.216;5.624;2023-03-14T04:55:55;8.70;99.90
53876;DHT22;39789;53.216;5.624;2023-03-14T04:58:21;8.70;99.90
53876;DHT22;39789;53.216;5.624;2023-03-14T05:00:47;8.70;99.90
53876;DHT22;39789;53.216;5.624;2023-03-14T05:03:17;8.70;99.90
53876;DHT22;39789;53.216;5.624;2023-03-14T05:05:45;8.70;99.90
53876;DHT22;39789;53.216;5.624;2023-03-14T05:08:11;8.70;99.90
53876;DHT22;39789;53.216;5.624;2023-03-14T05:10:37;8.70;99.90
53876;DHT22;39789;53.216;5.624;2023-03-14T05:13:04;8.70;99.90
53876;DHT22;39789;53.216;5.624;2023-03-14T05:15:30;9.10;99.90
53876;DHT22;39789;53.216;5.624;2023-03-14T05:17:56;8.70;99.90
53876;DHT22;39789;53.216;5.624;2023-03-14T05:20:22;8.70;99.90
53876;DHT22;39789;53.216;5.624;2023-03-14T05:22:47;8.70;99.90
53876;DHT22;39789;53.216;5.624;2023-03-14T05:25:13;8.60;99.90
53876;DHT22;39789;53.216;5.624;2023-03-14T05:27:42;8.60;99.90
53876;DHT22;39789;53.216;5.624;2023-03-14T05:30:09;8.60;99.90
53876;DHT22;39789;53.216;5.624;2023-03-14T05:32:41;8.40;99.90
53876;DHT22;39789;53.216;5.624;2023-03-14T05:35:07;8.30;99.90
53876;DHT22;39789;53.216;5.624;2023-03-14T05:37:45;8.10;99.90
53876;DHT22;39789;53.216;5.624;2023-03-14T05:40:12;7.90;99.90
53876;DHT22;39789;53.216;5.624;2023-03-14T05:42:38;7.80;99.90
53876;DHT22;39789;53.216;5.624;2023-03-14T05:45:04;7.70;99.90
53876;DHT22;39789;53.216;5.624;2023-03-14T05:47:30;7.60;99.90
53876;DHT22;39789;53.216;5.624;2023-03-14T05:49:55;7.50;99.90
53876;DHT22;39789;53.216;5.624;2023-03-14T05:52:21;7.30;99.90
53876;DHT22;39789;53.216;5.624;2023-03-14T05:54:47;6.90;99.90
53876;DHT22;39789;53.216;5.624;2023-03-14T05:57:13;6.60;99.90
53876;DHT22;39789;53.216;5.624;2023-03-14T05:59:40;6.40;99.90
53876;DHT22;39789;53.216;5.624;2023-03-14T06:02:06;6.20;99.90
53876;DHT22;39789;53.216;5.624;2023-03-14T06:04:31;6.00;99.90
53876;DHT22;39789;53.216;5.624;2023-03-14T06:06:57;5.80;99.90
53876;DHT22;39789;53.216;5.624;2023-03-14T06:09:22;5.70;99.90
53876;DHT22;39789;53.216;5.624;2023-03-14T06:11:50;5.50;99.90
53876;DHT22;39789;53.216;5.624;2023-03-14T06:14:16;5.50;99.90
53876;DHT22;39789;53.216;5.624;2023-03-14T06:16:42;5.40;99.90
53876;DHT22;39789;53.216;5.624;2023-03-14T06:19:08;5.30;99.90
53876;DHT22;39789;53.216;5.624;2023-03-14T06:21:36;5.20;99.90
53876;DHT22;39789;53.216;5.624;2023-03-14T06:24:02;5.10;99.90
53876;DHT22;39789;53.216;5.624;2023-03-14T06:26:28;5.10;99.90
53876;DHT22;39789;53.216;5.624;2023-03-14T06:28:56;5.10;99.90
53876;DHT22;39789;53.216;5.624;2023-03-14T06:31:21;5.00;99.90
53876;DHT22;39789;53.216;5.624;2023-03-14T06:33:48;5.00;99.90
53876;DHT22;39789;53.216;5.624;2023-03-14T06:36:14;5.00;99.90
53876;DHT22;39789;53.216;5.624;2023-03-14T06:38:39;5.00;99.90
53876;DHT22;39789;53.216;5.624;2023-03-14T06:41:06;5.00;99.90
53876;DHT22;39789;53.216;5.624;2023-03-14T06:43:32;5.60;99.90
53876;DHT22;39789;53.216;5.624;2023-03-14T06:45:57;5.00;99.90
53876;DHT22;39789;53.216;5.624;2023-03-14T06:48:23;4.90;99.90
53876;DHT22;39789;53.216;5.624;2023-03-14T06:50:49;4.90;99.90
53876;DHT22;39789;53.216;5.624;2023-03-14T06:53:14;4.90;99.90
53876;DHT22;39789;53.216;5.624;2023-03-14T06:55:40;4.90;99.90
53876;DHT22;39789;53.216;5.624;2023-03-14T06:58:06;4.90;99.90
53876;DHT22;39789;53.216;5.624;2023-03-14T07:00:34;4.90;99.90
53876;DHT22;39789;53.216;5.624;2023-03-14T07:02:59;4.80;99.90
53876;DHT22;39789;53.216;5.624;2023-03-14T07:05:25;4.80;99.90
53876;DHT22;39789;53.216;5.624;2023-03-14T07:07:51;4.70;99.90
53876;DHT22;39789;53.216;5.624;2023-03-14T07:10:16;5.90;99.90
53876;DHT22;39789;53.216;5.624;2023-03-14T07:12:42;5.10;99.90
53876;DHT22;39789;53.216;5.624;2023-03-14T07:15:08;4.40;99.90
53876;DHT22;39789;53.216;5.624;2023-03-14T07:17:34;4.90;99.90
53876;DHT22;39789;53.216;5.624;2023-03-14T07:20:00;5.00;99.90
53876;DHT22;39789;53.216;5.624;2023-03-14T07:22:26;5.00;99.90
53876;DHT22;39789;53.216;5.624;2023-03-14T07:24:52;5.10;99.90
53876;DHT22;39789;53.216;5.624;2023-03-14T07:27:17;5.10;99.90
53876;DHT22;39789;53.216;5.624;2023-03-14T07:29:43;5.10;99.90
53876;DHT22;39789;53.216;5.624;2023-03-14T07:32:08;5.10;99.90
53876;DHT22;39789;53.216;5.624;2023-03-14T07:34:36;5.20;99.90
53876;DHT22;39789;53.216;5.624;2023-03-14T07:37:01;6.10;99.90
53876;DHT22;39789;53.216;5.624;2023-03-14T07:39:28;5.20;99.90
53876;DHT22;39789;53.216;5.624;2023-03-14T07:41:53;5.30;99.90
53876;DHT22;39789;53.216;5.624;2023-03-14T07:44:20;5.30;99.90
53876;DHT22;39789;53.216;5.624;2023-03-14T07:46:45;5.40;99.90
53876;DHT22;39789;53.216;5.624;2023-03-14T07:49:11;5.50;99.90
53876;DHT22;39789;53.216;5.624;2023-03-14T07:51:36;5.60;99.90
53876;DHT22;39789;53.216;5.624;2023-03-14T07:54:02;5.60;99.90
53876;DHT22;39789;53.216;5.624;2023-03-14T07:56:28;5.70;99.90
53876;DHT22;39789;53.216;5.624;2023-03-14T07:58:53;5.70;99.90
53876;DHT22;39789;53.216;5.624;2023-03-14T08:01:19;5.80;99.90
53876;DHT22;39789;53.216;5.624;2023-03-14T08:03:44;5.80;99.90
53876;DHT22;39789;53.216;5.624;2023-03-14T08:06:10;5.80;99.90
53876;DHT22;39789;53.216;5.624;2023-03-14T08:08:35;5.90;99.90
53876;DHT22;39789;53.216;5.624;2023-03-14T08:11:06;6.00;99.90
53876;DHT22;39789;53.216;5.624;2023-03-14T08:13:36;6.10;99.90
53876;DHT22;39789;53.216;5.624;2023-03-14T08:16:02;6.20;99.90
53876;DHT22;39789;53.216;5.624;2023-03-14T08:18:27;6.30;99.90
53876;DHT22;39789;53.216;5.624;2023-03-14T08:20:53;6.40;99.90
53876;DHT22;39789;53.216;5.624;2023-03-14T08:23:18;6.40;99.90
53876;DHT22;39789;53.216;5.624;2023-03-14T08:25:44;6.40;99.90
53876;DHT22;39789;53.216;5.624;2023-03-14T08:28:09;6.30;99.90
53876;DHT22;39789;53.216;5.624;2023-03-14T08:30:39;6.20;99.90
53876;DHT22;39789;53.216;5.624;2023-03-14T08:33:05;6.10;99.90
53876;DHT22;39789;53.216;5.624;2023-03-14T08:35:31;5.90;99.90
53876;DHT22;39789;53.216;5.624;2023-03-14T08:37:57;5.70;99.90
53876;DHT22;39789;53.216;5.624;2023-03-14T08:40:22;5.70;99.90
53876;DHT22;39789;53.216;5.624;2023-03-14T08:42:50;5.70;99.90
53876;DHT22;39789;53.216;5.624;2023-03-14T08:45:16;5.80;99.90
53876;DHT22;39789;53.216;5.624;2023-03-14T08:47:43;6.90;99.90
53876;DHT22;39789;53.216;5.624;2023-03-14T08:50:10;5.80;99.90
53876;DHT22;39789;53.216;5.624;2023-03-14T08:52:36;5.90;99.90
53876;DHT22;39789;53.216;5.624;2023-03-14T08:55:03;6.80;99.90
53876;DHT22;39789;53.216;5.624;2023-03-14T08:57:29;6.10;99.90
53876;DHT22;39789;53.216;5.624;2023-03-14T08:59:55;6.60;99.90
53876;DHT22;39789;53.216;5.624;2023-03-14T09:02:22;6.30;99.90
53876;DHT22;39789;53.216;5.624;2023-03-14T09:04:50;6.40;99.90
53876;DHT22;39789;53.216;5.624;2023-03-14T09:07:16;6.40;99.90
53876;DHT22;39789;53.216;5.624;2023-03-14T09:09:42;6.40;99.90
53876;DHT22;39789;53.216;5.624;2023-03-14T09:12:07;6.40;99.90
53876;DHT22;39789;53.216;5.624;2023-03-14T09:14:33;6.30;99.90
53876;DHT22;39789;53.216;5.624;2023-03-14T09:16:59;6.20;99.90
53876;DHT22;39789;53.216;5.624;2023-03-14T09:19:24;6.30;99.90
53876;DHT22;39789;53.216;5.624;2023-03-14T09:21:50;6.20;99.90
53876;DHT22;39789;53.216;5.624;2023-03-14T09:24:16;6.20;99.90
53876;DHT22;39789;53.216;5.624;2023-03-14T09:26:42;6.30;99.90
53876;DHT22;39789;53.216;5.624;2023-03-14T09:29:09;6.40;99.90
53876;DHT22;39789;53.216;5.624;2023-03-14T09:31:34;6.50;99.90
53876;DHT22;39789;53.216;5.624;2023-03-14T09:34:01;6.60;99.90
53876;DHT22;39789;53.216;5.624;2023-03-14T09:36:26;6.60;99.90
53876;DHT22;39789;53.216;5.624;2023-03-14T09:38:53;6.70;99.90
53876;DHT22;39789;53.216;5.624;2023-03-14T09:41:28;6.60;99.90
53876;DHT22;39789;53.216;5.624;2023-03-14T09:44:05;6.60;99.90
53876;DHT22;39789;53.216;5.624;2023-03-14T09:46:36;6.60;99.90
53876;DHT22;39789;53.216;5.624;2023-03-14T09:49:02;6.60;99.90
53876;DHT22;39789;53.216;5.624;2023-03-14T09:51:29;6.50;99.90
53876;DHT22;39789;53.216;5.624;2023-03-14T09:53:54;6.60;99.90
53876;DHT22;39789;53.216;5.624;2023-03-14T09:56:26;6.70;99.90
53876;DHT22;39789;53.216;5.624;2023-03-14T09:58:56;7.80;99.90
53876;DHT22;39789;53.216;5.624;2023-03-14T10:01:31;7.00;99.90
53876;DHT22;39789;53.216;5.624;2023-03-14T10:04:18;7.00;99.90
53876;DHT22;39789;53.216;5.624;2023-03-14T10:06:48;6.90;99.90
53876;DHT22;39789;53.216;5.624;2023-03-14T10:09:21;6.70;99.90
53876;DHT22;39789;53.216;5.624;2023-03-14T10:11:58;6.70;99.90
53876;DHT22;39789;53.216;5.624;2023-03-14T10:14:35;6.60;99.90
53876;DHT22;39789;53.216;5.624;2023-03-14T10:17:09;6.50;99.90
53876;DHT22;39789;53.216;5.624;2023-03-14T10:19:37;6.40;99.90
53876;DHT22;39789;53.216;5.624;2023-03-14T10:22:13;6.60;99.90
53876;DHT22;39789;53.216;5.624;2023-03-14T10:24:55;6.70;99.90
53876;DHT22;39789;53.216;5.624;2023-03-14T10:27:33;6.70;99.90
53876;DHT22;39789;53.216;5.624;2023-03-14T10:30:06;8.20;99.90
53876;DHT22;39789;53.216;5.624;2023-03-14T10:32:37;6.70;99.90
53876;DHT22;39789;53.216;5.624;2023-03-14T10:35:20;7.10;99.90
53876;DHT22;39789;53.216;5.624;2023-03-14T10:38:01;6.50;99.90
53876;DHT22;39789;53.216;5.624;2023-03-14T10:40:31;6.60;99.90
53876;DHT22;39789;53.216;5.624;2023-03-14T10:42:58;6.60;99.90
53876;DHT22;39789;53.216;5.624;2023-03-14T10:51:07;6.60;99.90
53876;DHT22;39789;53.216;5.624;2023-03-14T10:53:50;6.60;99.90
53876;DHT22;39789;53.216;5.624;2023-03-14T10:56:23;6.60;99.90
53876;DHT22;39789;53.216;5.624;2023-03-14T10:58:50;6.70;99.90
53876;DHT22;39789;53.216;5.624;2023-03-14T11:04:00;6.80;99.90
53876;DHT22;39789;53.216;5.624;2023-03-14T11:15:30;6.90;99.90
53876;DHT22;39789;53.216;5.624;2023-03-14T11:24:17;7.10;99.90
53876;DHT22;39789;53.216;5.624;2023-03-14T11:27:03;7.40;99.90
53876;DHT22;39789;53.216;5.624;2023-03-14T11:29:53;7.50;99.90
53876;DHT22;39789;53.216;5.624;2023-03-14T11:34:52;7.40;99.90
53876;DHT22;39789;53.216;5.624;2023-03-14T11:37:22;7.50;99.90
53876;DHT22;39789;53.216;5.624;2023-03-14T11:39:58;7.50;99.90
53876;DHT22;39789;53.216;5.624;2023-03-14T11:42:38;8.10;99.90
53876;DHT22;39789;53.216;5.624;2023-03-14T11:45:21;7.50;99.90
53876;DHT22;39789;53.216;5.624;2023-03-14T11:48:05;7.40;99.90
53876;DHT22;39789;53.216;5.624;2023-03-14T11:50:34;7.30;99.90
53876;DHT22;39789;53.216;5.624;2023-03-14T11:53:08;7.20;99.90
53876;DHT22;39789;53.216;5.624;2023-03-14T11:55:46;7.20;99.90
53876;DHT22;39789;53.216;5.624;2023-03-14T11:58:29;7.30;99.90
53876;DHT22;39789;53.216;5.624;2023-03-14T12:00:57;7.30;99.90
53876;DHT22;39789;53.216;5.624;2023-03-14T12:08:45;7.10;99.90
53876;DHT22;39789;53.216;5.624;2023-03-14T12:11:28;7.10;99.90
53876;DHT22;39789;53.216;5.624;2023-03-14T12:13:54;7.10;99.90
53876;DHT22;39789;53.216;5.624;2023-03-14T12:16:35;6.90;99.90
53876;DHT22;39789;53.216;5.624;2023-03-14T12:19:30;7.00;99.90
53876;DHT22;39789;53.216;5.624;2023-03-14T12:24:49;7.10;99.90
53876;DHT22;39789;53.216;5.624;2023-03-14T12:27:43;7.00;99.90
53876;DHT22;39789;53.216;5.624;2023-03-14T12:35:50;7.00;99.90
53876;DHT22;39789;53.216;5.624;2023-03-14T12:41:14;6.80;99.90
53876;DHT22;39789;53.216;5.624;2023-03-14T12:43:40;6.80;99.90
53876;DHT22;39789;53.216;5.624;2023-03-14T12:46:15;7.70;99.90
53876;DHT22;39789;53.216;5.624;2023-03-14T12:48:49;6.90;99.90
53876;DHT22;39789;53.216;5.624;2023-03-14T12:51:20;6.90;99.90
53876;DHT22;39789;53.216;5.624;2023-03-14T12:56:28;7.20;99.90
53876;DHT22;39789;53.216;5.624;2023-03-14T13:01:48;7.10;99.90
53876;DHT22;39789;53.216;5.624;2023-03-14T13:04:36;7.30;99.90
53876;DHT22;39789;53.216;5.624;2023-03-14T13:10:23;7.50;99.90
53876;DHT22;39789;53.216;5.624;2023-03-14T13:12:55;7.50;99.90
53876;DHT22;39789;53.216;5.624;2023-03-14T13:15:33;7.50;99.90
53876;DHT22;39789;53.216;5.624;2023-03-14T13:18:02;7.40;99.90
53876;DHT22;39789;53.216;5.624;2023-03-14T13:20:32;7.30;99.90
53876;DHT22;39789;53.216;5.624;2023-03-14T13:23:02;7.20;99.90
53876;DHT22;39789;53.216;5.624;2023-03-14T13:25:36;7.20;99.90
53876;DHT22;39789;53.216;5.624;2023-03-14T13:28:04;7.20;99.90
53876;DHT22;39789;53.216;5.624;2023-03-14T13:30:43;7.20;99.90
53876;DHT22;39789;53.216;5.624;2023-03-14T13:33:19;7.20;99.90
53876;DHT22;39789;53.216;5.624;2023-03-14T13:35:47;7.30;99.90
53876;DHT22;39789;53.216;5.624;2023-03-14T13:38:21;7.40;99.90
53876;DHT22;39789;53.216;5.624;2023-03-14T13:40:48;7.50;99.90
53876;DHT22;39789;53.216;5.624;2023-03-14T13:43:28;7.50;99.90
53876;DHT22;39789;53.216;5.624;2023-03-14T13:46:19;7.50;99.90
53876;DHT22;39789;53.216;5.624;2023-03-14T13:48:49;7.50;99.90
53876;DHT22;39789;53.216;5.624;2023-03-14T13:51:20;7.40;99.90
53876;DHT22;39789;53.216;5.624;2023-03-14T13:53:51;7.30;99.90
53876;DHT22;39789;53.216;5.624;2023-03-14T13:56:19;8.00;99.90
53876;DHT22;39789;53.216;5.624;2023-03-14T13:58:45;7.20;99.90
53876;DHT22;39789;53.216;5.624;2023-03-14T14:01:22;7.20;99.90
53876;DHT22;39789;53.216;5.624;2023-03-14T14:03:54;7.20;99.90
53876;DHT22;39789;53.216;5.624;2023-03-14T14:06:44;7.00;99.90
53876;DHT22;39789;53.216;5.624;2023-03-14T14:09:16;6.80;99.90
53876;DHT22;39789;53.216;5.624;2023-03-14T14:14:27;6.70;99.90
53876;DHT22;39789;53.216;5.624;2023-03-14T14:16:54;6.60;99.90
53876;DHT22;39789;53.216;5.624;2023-03-14T14:19:22;6.40;99.90
53876;DHT22;39789;53.216;5.624;2023-03-14T14:21:49;6.30;99.90
53876;DHT22;39789;53.216;5.624;2023-03-14T14:24:17;6.30;99.90
53876;DHT22;39789;53.216;5.624;2023-03-14T14:26:54;6.40;99.90
53876;DHT22;39789;53.216;5.624;2023-03-14T14:29:32;6.40;99.90
53876;DHT22;39789;53.216;5.624;2023-03-14T14:32:03;6.90;99.90
53876;DHT22;39789;53.216;5.624;2023-03-14T14:34:28;7.80;99.90
53876;DHT22;39789;53.216;5.624;2023-03-14T14:36:54;7.10;99.90
53876;DHT22;39789;53.216;5.624;2023-03-14T14:39:26;7.00;99.90
53876;DHT22;39789;53.216;5.624;2023-03-14T14:41:52;6.80;99.90
53876;DHT22;39789;53.216;5.624;2023-03-14T14:44:30;6.90;99.90
53876;DHT22;39789;53.216;5.624;2023-03-14T14:46:57;6.90;99.90
53876;DHT22;39789;53.216;5.624;2023-03-14T14:49:29;7.10;99.90
53876;DHT22;39789;53.216;5.624;2023-03-14T14:52:05;7.10;99.90
53876;DHT22;39789;53.216;5.624;2023-03-14T14:54:34;7.00;99.90
53876;DHT22;39789;53.216;5.624;2023-03-14T14:57:05;7.00;99.90
53876;DHT22;39789;53.216;5.624;2023-03-14T14:59:31;7.00;99.90
53876;DHT22;39789;53.216;5.624;2023-03-14T15:02:40;6.90;99.90
53876;DHT22;39789;53.216;5.624;2023-03-14T15:05:18;6.70;99.90
53876;DHT22;39789;53.216;5.624;2023-03-14T15:07:44;6.50;99.90
53876;DHT22;39789;53.216;5.624;2023-03-14T15:10:16;6.00;99.90
53876;DHT22;39789;53.216;5.624;2023-03-14T15:12:42;5.50;99.90
53876;DHT22;39789;53.216;5.624;2023-03-14T15:15:08;5.30;99.90
53876;DHT22;39789;53.216;5.624;2023-03-14T15:17:35;5.30;99.90
53876;DHT22;39789;53.216;5.624;2023-03-14T15:20:02;5.30;99.90
53876;DHT22;39789;53.216;5.624;2023-03-14T15:22:30;5.40;99.90
53876;DHT22;39789;53.216;5.624;2023-03-14T15:24:57;5.50;99.90
53876;DHT22;39789;53.216;5.624;2023-03-14T15:27:23;5.60;99.90
53876;DHT22;39789;53.216;5.624;2023-03-14T15:29:51;5.60;99.90
53876;DHT22;39789;53.216;5.624;2023-03-14T15:32:22;5.70;99.90
53876;DHT22;39789;53.216;5.624;2023-03-14T15:34:47;5.90;99.90
53876;DHT22;39789;53.216;5.624;2023-03-14T15:37:15;7.20;99.90
53876;DHT22;39789;53.216;5.624;2023-03-14T15:39:41;6.00;99.90
53876;DHT22;39789;53.216;5.624;2023-03-14T15:42:07;6.10;99.90
53876;DHT22;39789;53.216;5.624;2023-03-14T15:44:35;6.20;99.90
53876;DHT22;39789;53.216;5.624;2023-03-14T15:47:01;6.40;99.90
53876;DHT22;39789;53.216;5.624;2023-03-14T15:49:27;6.10;99.90
53876;DHT22;39789;53.216;5.624;2023-03-14T15:51:53;5.90;99.90
53876;DHT22;39789;53.216;5.624;2023-03-14T15:54:19;5.80;99.90
53876;DHT22;39789;53.216;5.624;2023-03-14T15:56:46;6.10;99.90
53876;DHT22;39789;53.216;5.624;2023-03-14T15:59:11;5.90;99.90
53876;DHT22;39789;53.216;5.624;2023-03-14T16:01:37;5.90;99.90
53876;DHT22;39789;53.216;5.624;2023-03-14T16:04:03;5.90;99.90
53876;DHT22;39789;53.216;5.624;2023-03-14T16:06:29;5.80;99.90
53876;DHT22;39789;53.216;5.624;2023-03-14T16:08:56;5.90;99.90
53876;DHT22;39789;53.216;5.624;2023-03-14T16:11:22;6.00;99.90
53876;DHT22;39789;53.216;5.624;2023-03-14T16:13:47;6.10;99.90
53876;DHT22;39789;53.216;5.624;2023-03-14T16:16:13;6.10;99.90
53876;DHT22;39789;53.216;5.624;2023-03-14T16:18:39;6.10;99.90
53876;DHT22;39789;53.216;5.624;2023-03-14T16:21:09;6.00;99.90
53876;DHT22;39789;53.216;5.624;2023-03-14T16:23:37;5.90;99.90
53876;DHT22;39789;53.216;5.624;2023-03-14T16:26:06;5.80;99.90
53876;DHT22;39789;53.216;5.624;2023-03-14T16:28:33;5.70;99.90
53876;DHT22;39789;53.216;5.624;2023-03-14T16:31:04;5.70;99.90
53876;DHT22;39789;53.216;5.624;2023-03-14T16:33:32;5.70;99.90
53876;DHT22;39789;53.216;5.624;2023-03-14T16:36:00;5.70;99.90
53876;DHT22;39789;53.216;5.624;2023-03-14T16:38:30;5.70;99.90
53876;DHT22;39789;53.216;5.624;2023-03-14T16:41:01;5.60;99.90
53876;DHT22;39789;53.216;5.624;2023-03-14T16:43:27;5.50;99.90
53876;DHT22;39789;53.216;5.624;2023-03-14T16:45:53;5.50;99.90
53876;DHT22;39789;53.216;5.624;2023-03-14T16:48:19;6.50;99.90
53876;DHT22;39789;53.216;5.624;2023-03-14T16:50:45;5.30;99.90
53876;DHT22;39789;53.216;5.624;2023-03-14T16:53:10;5.10;99.90